createdAt,value
2017-11-12T00:01:09.825Z,8.20
2017-11-12T00:03:37.383Z,8.20
2017-11-12T00:06:04.986Z,8.20
2017-11-12T00:08:32.574Z,8.10
2017-11-12T00:11:00.176Z,8.10
2017-11-12T00:13:27.740Z,8.10
2017-11-12T00:15:56.095Z,8.10
2017-11-12T00:18:23.640Z,8.00
2017-11-12T00:20:51.207Z,8.00
2017-11-12T00:23:18.820Z,8.00
2017-11-12T00:25:47.147Z,7.90
2017-11-12T00:28:14.706Z,7.90
2017-11-12T00:30:42.304Z,8.00
2017-11-12T00:33:10.682Z,8.00
2017-11-12T00:35:38.999Z,8.00
2017-11-12T00:38:06.577Z,9.60
2017-11-12T00:40:34.187Z,8.00
2017-11-12T00:43:02.537Z,8.00
2017-11-12T00:45:30.120Z,8.00
2017-11-12T00:47:58.510Z,8.00
2017-11-12T00:50:26.830Z,8.00
2017-11-12T00:52:54.391Z,8.00
2017-11-12T00:55:21.994Z,7.90
2017-11-12T00:57:49.553Z,7.80
2017-11-12T01:00:17.895Z,7.80
2017-11-12T01:02:45.488Z,7.80
2017-11-12T01:05:13.115Z,7.80
2017-11-12T01:07:40.680Z,7.80
2017-11-12T01:10:08.259Z,8.00
2017-11-12T01:12:35.858Z,7.90
2017-11-12T01:15:04.175Z,7.90
2017-11-12T01:17:31.771Z,7.90
2017-11-12T01:19:59.320Z,7.90
2017-11-12T01:22:26.909Z,7.90
2017-11-12T01:24:55.231Z,8.20
2017-11-12T01:27:22.835Z,8.10
2017-11-12T01:29:50.410Z,7.90
2017-11-12T01:32:18.734Z,8.00
2017-11-12T01:34:46.327Z,8.00
2017-11-12T01:37:13.892Z,8.00
2017-11-12T01:39:41.483Z,8.10
2017-11-12T01:42:09.818Z,8.10
2017-11-12T01:44:37.419Z,8.00
2017-11-12T01:47:05.771Z,8.10
2017-11-12T01:49:33.358Z,8.10
2017-11-12T01:52:01.711Z,7.90
2017-11-12T01:54:29.263Z,7.90
2017-11-12T01:56:56.867Z,8.10
2017-11-12T01:59:24.471Z,7.90
2017-11-12T02:01:52.072Z,8.00
2017-11-12T02:04:20.398Z,8.00
2017-11-12T02:06:47.990Z,8.00
2017-11-12T02:09:15.556Z,7.90
2017-11-12T02:11:43.155Z,8.00
2017-11-12T02:14:10.750Z,8.00
2017-11-12T02:16:38.351Z,8.00
2017-11-12T02:19:06.700Z,8.10
2017-11-12T02:21:34.261Z,8.10
2017-11-12T02:24:01.872Z,8.10
2017-11-12T02:26:29.434Z,8.10
2017-11-12T02:28:56.999Z,8.00
2017-11-12T02:31:24.627Z,7.90
2017-11-12T02:33:52.223Z,8.00
2017-11-12T02:36:19.778Z,8.00
2017-11-12T02:38:47.383Z,8.00
2017-11-12T02:41:14.943Z,8.00
2017-11-12T02:43:42.531Z,8.00
2017-11-12T02:46:10.102Z,7.90
2017-11-12T02:48:38.484Z,7.80
2017-11-12T02:51:06.066Z,7.80
2017-11-12T02:53:33.629Z,7.80
2017-11-12T02:56:02.016Z,7.90
2017-11-12T02:58:29.584Z,7.90
2017-11-12T03:00:57.176Z,7.90
2017-11-12T03:03:24.731Z,7.90
2017-11-12T03:05:52.338Z,7.80
2017-11-12T03:08:19.896Z,7.70
2017-11-12T03:10:48.263Z,7.80
2017-11-12T03:13:16.594Z,7.80
2017-11-12T03:15:44.184Z,7.70
2017-11-12T03:18:11.788Z,7.70
2017-11-12T03:20:39.356Z,7.80
2017-11-12T03:23:06.934Z,7.80
2017-11-12T03:25:34.555Z,7.80
2017-11-12T03:28:02.878Z,7.80
2017-11-12T03:30:30.462Z,7.80
2017-11-12T03:32:58.060Z,7.70
2017-11-12T03:35:25.615Z,7.80
2017-11-12T03:37:53.984Z,7.70
2017-11-12T03:40:22.325Z,7.80
2017-11-12T03:42:49.906Z,7.80
2017-11-12T03:45:17.463Z,7.90
2017-11-12T03:47:45.068Z,7.80
2017-11-12T03:50:12.631Z,7.80
2017-11-12T03:52:40.239Z,7.80
2017-11-12T03:55:07.807Z,7.60
2017-11-12T03:57:35.364Z,7.70
2017-11-12T04:00:02.968Z,7.80
2017-11-12T04:02:30.532Z,7.70
2017-11-12T04:04:58.139Z,7.70
2017-11-12T04:07:25.747Z,7.70
2017-11-12T04:09:53.314Z,7.70
2017-11-12T04:12:20.911Z,7.60
2017-11-12T04:14:48.516Z,7.60
2017-11-12T04:17:16.827Z,7.60
2017-11-12T04:19:44.440Z,7.60
2017-11-12T04:22:12.008Z,7.60
2017-11-12T04:24:39.566Z,7.60
2017-11-12T04:27:07.159Z,7.50
2017-11-12T04:29:34.722Z,7.50
2017-11-12T04:32:03.114Z,7.60
2017-11-12T04:34:30.681Z,7.60
2017-11-12T04:36:58.245Z,7.60
2017-11-12T04:39:25.833Z,7.60
2017-11-12T04:41:53.394Z,7.50
2017-11-12T04:44:21.023Z,7.50
2017-11-12T04:46:48.576Z,7.40
2017-11-12T04:49:16.131Z,7.40
2017-11-12T04:51:43.736Z,7.40
2017-11-12T04:54:11.295Z,7.50
2017-11-12T04:56:38.854Z,7.50
2017-11-12T04:59:06.480Z,7.30
2017-11-12T05:01:34.055Z,7.50
2017-11-12T05:04:01.614Z,7.50
2017-11-12T05:06:29.222Z,7.40
2017-11-12T05:08:57.544Z,7.50
2017-11-12T05:11:25.094Z,7.50
2017-11-12T05:13:52.731Z,7.40
2017-11-12T05:16:20.300Z,7.40
2017-11-12T05:18:47.854Z,7.40
2017-11-12T05:21:15.466Z,7.40
2017-11-12T05:23:43.046Z,7.40
2017-11-12T05:26:10.615Z,7.50
2017-11-12T05:28:38.219Z,7.50
2017-11-12T05:31:05.780Z,7.50
2017-11-12T05:33:33.336Z,7.40
2017-11-12T05:36:00.930Z,7.40
2017-11-12T05:38:28.498Z,7.30
2017-11-12T05:40:56.111Z,7.20
2017-11-12T05:43:23.678Z,7.20
2017-11-12T05:45:51.232Z,7.30
2017-11-12T05:48:18.826Z,7.20
2017-11-12T05:50:46.374Z,7.10
2017-11-12T05:53:13.968Z,7.30
2017-11-12T05:55:41.568Z,7.30
2017-11-12T05:58:09.163Z,7.20
2017-11-12T06:00:36.721Z,7.20
2017-11-12T06:03:04.283Z,7.30
2017-11-12T06:05:31.880Z,7.20
2017-11-12T06:07:59.442Z,7.20
2017-11-12T06:10:27.056Z,7.20
2017-11-12T06:12:54.611Z,7.20
2017-11-12T06:15:22.198Z,7.30
2017-11-12T06:17:49.799Z,7.30
2017-11-12T06:20:18.123Z,7.20
2017-11-12T06:22:46.482Z,7.10
2017-11-12T06:25:14.097Z,7.10
2017-11-12T06:27:41.690Z,7.10
2017-11-12T06:30:10.011Z,7.00
2017-11-12T06:32:37.625Z,7.00
2017-11-12T06:35:05.958Z,7.00
2017-11-12T06:37:33.508Z,7.00
2017-11-12T06:40:01.104Z,7.10
2017-11-12T06:42:29.431Z,6.90
2017-11-12T06:44:57.039Z,6.90
2017-11-12T06:47:24.598Z,7.00
2017-11-12T06:49:52.207Z,6.90
2017-11-12T06:52:19.813Z,7.00
2017-11-12T06:54:47.375Z,7.10
2017-11-12T06:57:14.976Z,7.00
2017-11-12T06:59:42.578Z,7.00
2017-11-12T07:02:10.158Z,7.00
2017-11-12T07:04:37.763Z,7.00
2017-11-12T07:07:05.377Z,7.10
2017-11-12T07:09:32.936Z,7.10
2017-11-12T07:12:00.547Z,7.10
2017-11-12T07:14:28.098Z,7.00
2017-11-12T07:16:55.651Z,7.00
2017-11-12T07:19:24.016Z,7.00
2017-11-12T07:21:52.375Z,7.00
2017-11-12T07:24:19.974Z,7.00
2017-11-12T07:26:48.341Z,7.10
2017-11-12T07:29:16.716Z,7.00
2017-11-12T07:31:45.086Z,7.10
2017-11-12T07:34:12.644Z,7.10
2017-11-12T07:36:40.216Z,7.00
2017-11-12T07:39:07.852Z,7.00
2017-11-12T07:41:35.438Z,7.20
2017-11-12T07:44:03.043Z,7.10
2017-11-12T07:46:30.649Z,7.10
2017-11-12T07:48:58.221Z,7.00
2017-11-12T07:51:26.596Z,7.00
2017-11-12T07:53:54.152Z,7.00
2017-11-12T07:56:21.754Z,7.10
2017-11-12T07:58:49.333Z,7.10
2017-11-12T08:01:16.920Z,7.10
2017-11-12T08:03:44.474Z,7.10
2017-11-12T08:06:12.083Z,7.10
2017-11-12T08:08:40.421Z,6.90
2017-11-12T08:11:08.035Z,6.90
2017-11-12T08:13:35.620Z,6.90
2017-11-12T08:16:03.219Z,6.90
2017-11-12T08:18:30.826Z,6.90
2017-11-12T08:20:58.439Z,6.90
2017-11-12T08:23:26.055Z,7.00
2017-11-12T08:25:53.624Z,6.90
2017-11-12T08:28:21.198Z,6.90
2017-11-12T08:30:48.805Z,6.90
2017-11-12T08:33:17.163Z,6.90
2017-11-12T08:38:17.427Z,7.00
2017-11-12T08:40:45.795Z,6.80
2017-11-12T08:43:14.172Z,6.80
2017-11-12T08:45:42.538Z,6.90
2017-11-12T08:48:10.096Z,6.90
2017-11-12T08:50:37.691Z,7.10
2017-11-12T08:53:06.046Z,7.00
2017-11-12T08:55:33.599Z,7.10
2017-11-12T08:58:01.211Z,7.00
2017-11-12T09:00:28.815Z,6.90
2017-11-12T09:02:57.168Z,7.10
2017-11-12T09:05:24.766Z,7.00
2017-11-12T09:07:52.332Z,7.10
2017-11-12T09:10:20.700Z,7.20
2017-11-12T09:12:48.303Z,7.20
2017-11-12T09:15:15.900Z,7.30
2017-11-12T09:17:43.463Z,7.20
2017-11-12T09:20:11.042Z,7.20
2017-11-12T09:22:38.640Z,7.10
2017-11-12T09:25:06.198Z,7.10
2017-11-12T09:27:34.554Z,6.90
2017-11-12T09:30:02.130Z,7.00
2017-11-12T09:32:30.491Z,7.10
2017-11-12T09:34:58.051Z,7.10
2017-11-12T09:37:25.648Z,6.90
2017-11-12T09:39:53.204Z,7.00
2017-11-12T09:42:20.795Z,7.10
2017-11-12T09:44:48.371Z,7.00
2017-11-12T09:47:15.971Z,6.90
2017-11-12T09:49:44.294Z,6.80
2017-11-12T09:52:11.899Z,6.80
2017-11-12T09:54:40.257Z,7.00
2017-11-12T09:57:07.807Z,7.00
2017-11-12T09:59:35.394Z,7.00
2017-11-12T10:02:02.964Z,7.10
2017-11-12T10:04:31.333Z,7.00
2017-11-12T10:06:59.682Z,7.10
2017-11-12T10:09:27.284Z,7.00
2017-11-12T10:11:55.630Z,7.20
2017-11-12T10:14:23.224Z,7.20
2017-11-12T10:16:51.562Z,7.10
2017-11-12T10:19:19.146Z,7.10
2017-11-12T10:21:46.740Z,7.10
2017-11-12T10:24:14.300Z,7.20
2017-11-12T10:26:41.891Z,7.10
2017-11-12T10:29:09.482Z,7.00
2017-11-12T10:31:37.028Z,6.80
2017-11-12T10:34:04.615Z,6.90
2017-11-12T10:36:32.172Z,7.00
2017-11-12T10:38:59.767Z,7.10
2017-11-12T10:41:27.327Z,7.10
2017-11-12T10:43:54.871Z,7.10
2017-11-12T10:46:23.271Z,7.10
2017-11-12T10:48:50.841Z,7.10
2017-11-12T10:51:18.442Z,7.10
2017-11-12T10:53:46.004Z,7.00
2017-11-12T10:56:13.564Z,7.00
2017-11-12T10:58:41.181Z,7.00
2017-11-12T11:01:08.756Z,6.80
2017-11-12T11:03:36.311Z,6.80
2017-11-12T11:06:03.908Z,6.90
2017-11-12T11:08:31.507Z,7.10
2017-11-12T11:10:59.826Z,7.00
2017-11-12T11:13:27.395Z,7.00
2017-11-12T11:15:55.000Z,7.10
2017-11-12T11:18:23.353Z,7.00
2017-11-12T11:20:50.954Z,7.00
2017-11-12T11:23:18.519Z,7.00
2017-11-12T11:25:46.118Z,7.20
2017-11-12T11:28:13.663Z,6.90
2017-11-12T11:30:41.278Z,6.90
2017-11-12T11:33:09.608Z,7.10
2017-11-12T11:35:37.162Z,7.10
2017-11-12T11:38:04.771Z,7.20
2017-11-12T11:40:33.099Z,7.20
2017-11-12T11:43:00.672Z,7.20
2017-11-12T11:45:28.291Z,7.30
2017-11-12T11:47:55.842Z,7.30
2017-11-12T11:50:24.208Z,7.00
2017-11-12T11:52:52.541Z,7.00
2017-11-12T11:55:20.140Z,7.00
2017-11-12T11:57:47.738Z,7.00
2017-11-12T12:00:15.364Z,6.90
2017-11-12T12:02:42.944Z,6.90
2017-11-12T12:05:11.280Z,7.00
2017-11-12T12:07:38.883Z,7.00
2017-11-12T12:10:07.227Z,7.10
2017-11-12T12:12:34.771Z,7.00
2017-11-12T12:15:02.402Z,7.10
2017-11-12T12:17:29.967Z,7.00
2017-11-12T12:19:57.520Z,6.90
2017-11-12T12:22:25.118Z,6.90
2017-11-12T12:24:52.682Z,6.90
2017-11-12T12:29:54.257Z,6.90
2017-11-12T12:32:21.874Z,6.90
2017-11-12T12:34:49.431Z,6.90
2017-11-12T12:37:16.999Z,6.60
2017-11-12T12:39:44.631Z,6.40
2017-11-12T12:42:12.961Z,6.20
2017-11-12T12:44:40.519Z,6.10
2017-11-12T12:47:08.105Z,6.10
2017-11-12T12:49:35.665Z,5.90
2017-11-12T12:52:03.433Z,5.80
2017-11-12T12:54:30.984Z,5.80
2017-11-12T12:56:58.528Z,5.60
2017-11-12T12:59:26.131Z,5.70
2017-11-12T13:01:54.576Z,5.50
2017-11-12T13:04:22.174Z,5.50
2017-11-12T13:06:49.734Z,5.50
2017-11-12T13:09:18.106Z,5.30
2017-11-12T13:11:45.672Z,5.20
2017-11-12T13:14:14.033Z,5.20
2017-11-12T13:16:41.676Z,5.10
2017-11-12T13:19:09.230Z,5.20
2017-11-12T13:21:36.771Z,5.30
2017-11-12T13:24:04.372Z,5.20
2017-11-12T13:26:32.063Z,5.20
2017-11-12T13:29:00.390Z,5.30
2017-11-12T13:31:27.999Z,5.30
2017-11-12T13:33:56.364Z,5.30
2017-11-12T13:36:23.959Z,5.30
2017-11-12T13:38:52.319Z,5.40
2017-11-12T13:41:20.646Z,5.40
2017-11-12T13:43:48.192Z,5.40
2017-11-12T13:46:15.785Z,5.30
2017-11-12T13:48:43.375Z,5.20
2017-11-12T13:51:11.702Z,5.20
2017-11-12T13:53:39.304Z,5.20
2017-11-12T13:56:06.897Z,5.00
2017-11-12T13:58:34.490Z,4.90
2017-11-12T14:01:02.051Z,4.90
2017-11-12T14:03:29.646Z,4.80
2017-11-12T14:05:57.304Z,4.70
2017-11-12T14:08:24.899Z,4.70
2017-11-12T14:10:53.249Z,4.50
2017-11-12T14:13:20.863Z,4.50
2017-11-12T14:15:48.414Z,4.60
2017-11-12T14:18:15.994Z,4.60
2017-11-12T14:20:43.557Z,4.60
2017-11-12T14:23:11.149Z,4.60
2017-11-12T14:25:38.730Z,4.60
2017-11-12T14:28:07.096Z,4.70
2017-11-12T14:30:36.159Z,4.80
2017-11-12T14:33:03.712Z,4.80
2017-11-12T14:35:31.309Z,4.80
2017-11-12T14:37:58.884Z,4.80
2017-11-12T14:40:27.255Z,4.80
2017-11-12T14:42:55.619Z,4.70
2017-11-12T14:45:23.263Z,4.70
2017-11-12T14:47:50.860Z,4.70
2017-11-12T14:50:18.429Z,4.70
2017-11-12T14:52:46.782Z,4.50
2017-11-12T14:55:14.383Z,4.50
2017-11-12T14:57:41.943Z,4.50
2017-11-12T15:00:09.508Z,4.50
2017-11-12T15:02:37.111Z,4.40
2017-11-12T15:05:04.663Z,4.60
2017-11-12T15:07:32.267Z,4.50
2017-11-12T15:10:00.637Z,4.60
2017-11-12T15:12:28.186Z,4.60
2017-11-12T15:14:55.750Z,4.60
2017-11-12T15:17:23.415Z,4.60
2017-11-12T15:19:50.987Z,4.50
2017-11-12T15:22:19.367Z,4.40
2017-11-12T15:24:47.687Z,4.40
2017-11-12T15:27:15.267Z,4.40
2017-11-12T15:29:42.859Z,4.40
2017-11-12T15:32:10.417Z,4.50
2017-11-12T15:34:37.962Z,4.60
2017-11-12T15:37:05.601Z,4.60
2017-11-12T15:39:33.207Z,4.60
2017-11-12T15:42:00.881Z,4.70
2017-11-12T15:44:29.944Z,4.70
2017-11-12T15:46:57.562Z,4.60
2017-11-12T15:49:25.163Z,4.60
2017-11-12T15:51:52.784Z,4.60
2017-11-12T15:54:20.341Z,4.60
2017-11-12T15:56:49.518Z,4.60
2017-11-12T15:59:17.851Z,4.80
2017-11-12T16:01:45.397Z,4.80
2017-11-12T16:04:12.997Z,4.80
2017-11-12T16:06:40.559Z,4.80
2017-11-12T16:09:08.153Z,4.80
2017-11-12T16:11:35.712Z,4.80
2017-11-12T16:14:04.071Z,4.80
2017-11-12T16:16:32.403Z,4.80
2017-11-12T16:18:59.963Z,4.70
2017-11-12T16:21:27.558Z,4.80
2017-11-12T16:23:55.155Z,4.90
2017-11-12T16:26:22.708Z,5.00
2017-11-12T16:28:51.079Z,4.90
2017-11-12T16:31:19.448Z,5.00
2017-11-12T16:33:47.774Z,4.90
2017-11-12T16:36:15.364Z,4.90
2017-11-12T16:38:43.006Z,4.90
2017-11-12T16:41:10.621Z,4.80
2017-11-12T16:43:39.000Z,4.70
2017-11-12T16:46:07.415Z,4.70
2017-11-12T16:48:35.023Z,4.60
2017-11-12T16:51:02.634Z,4.60
2017-11-12T16:53:30.230Z,4.50
2017-11-12T16:55:57.898Z,4.60
2017-11-12T16:58:25.686Z,4.70
2017-11-12T17:00:54.034Z,4.70
2017-11-12T17:03:21.640Z,4.70
2017-11-12T17:05:49.957Z,4.60
2017-11-12T17:08:19.784Z,4.60
2017-11-12T17:10:49.393Z,4.60
2017-11-12T17:13:19.096Z,4.60
2017-11-12T17:15:50.434Z,4.50
2017-11-12T17:18:21.300Z,6.30
2017-11-12T17:20:53.349Z,4.60
2017-11-12T17:23:23.943Z,4.50
2017-11-12T17:25:53.988Z,4.50
2017-11-12T17:28:21.579Z,4.50
2017-11-12T17:30:49.191Z,4.50
2017-11-12T17:33:17.524Z,4.50
2017-11-12T17:35:45.071Z,4.50
2017-11-12T17:38:12.687Z,4.50
2017-11-12T17:40:40.291Z,4.50
2017-11-12T17:43:07.883Z,4.50
2017-11-12T17:45:36.195Z,4.40
2017-11-12T17:48:03.839Z,4.40
2017-11-12T17:50:31.421Z,4.50
2017-11-12T17:52:58.966Z,4.50
2017-11-12T17:55:26.571Z,4.50
2017-11-12T17:57:54.147Z,4.50
2017-11-12T18:00:21.744Z,4.50
2017-11-12T18:02:50.111Z,4.50
2017-11-12T18:05:18.475Z,4.50
2017-11-12T18:07:46.819Z,4.50
2017-11-12T18:10:14.419Z,4.50
2017-11-12T18:12:41.988Z,4.60
2017-11-12T18:15:10.366Z,4.60
2017-11-12T18:17:38.689Z,4.60
2017-11-12T18:20:06.245Z,4.60
2017-11-12T18:22:33.831Z,4.50
2017-11-12T18:25:01.381Z,4.50
2017-11-12T18:27:28.989Z,4.50
2017-11-12T18:29:57.316Z,4.60
2017-11-12T18:32:24.910Z,4.50
2017-11-12T18:34:52.506Z,4.50
2017-11-12T18:37:20.067Z,4.50
2017-11-12T18:39:47.672Z,4.50
2017-11-12T18:42:15.251Z,4.40
2017-11-12T18:44:42.900Z,4.50
2017-11-12T18:47:10.468Z,4.50
2017-11-12T18:49:38.020Z,4.50
2017-11-12T18:52:05.633Z,4.50
2017-11-12T18:54:35.807Z,4.60
2017-11-12T18:57:18.291Z,4.50
2017-11-12T18:59:50.319Z,4.60
2017-11-12T19:02:22.064Z,4.70
2017-11-12T19:04:56.109Z,4.60
2017-11-12T19:07:23.731Z,4.60
2017-11-12T19:09:51.291Z,4.60
2017-11-12T19:12:18.899Z,4.50
2017-11-12T19:14:46.477Z,4.50
2017-11-12T19:17:14.839Z,4.60
2017-11-12T19:19:57.270Z,4.70
2017-11-12T19:22:25.381Z,4.60
2017-11-12T19:24:56.390Z,4.60
2017-11-12T19:27:35.879Z,4.60
2017-11-12T19:30:04.767Z,4.70
2017-11-12T19:32:33.086Z,4.70
2017-11-12T19:35:00.640Z,4.70
2017-11-12T19:37:28.234Z,4.80
2017-11-12T19:39:55.797Z,4.80
2017-11-12T19:42:23.400Z,4.90
2017-11-12T19:44:50.971Z,4.90
2017-11-12T19:47:18.575Z,4.90
2017-11-12T19:49:46.133Z,4.90
2017-11-12T19:52:13.682Z,5.00
2017-11-12T19:54:41.283Z,5.10
2017-11-12T19:57:09.601Z,5.00
2017-11-12T19:59:37.150Z,5.00
2017-11-12T20:02:04.741Z,5.00
2017-11-12T20:04:32.304Z,5.00
2017-11-12T20:06:59.895Z,5.00
2017-11-12T20:09:28.227Z,5.00
2017-11-12T20:11:55.842Z,5.00
2017-11-12T20:14:24.167Z,4.90
2017-11-12T20:16:51.754Z,4.90
2017-11-12T20:19:19.322Z,4.90
2017-11-12T20:21:46.947Z,4.90
2017-11-12T20:24:14.540Z,4.90
2017-11-12T20:26:42.102Z,4.90
2017-11-12T20:29:09.700Z,4.90
2017-11-12T20:31:37.263Z,4.90
2017-11-12T20:34:04.876Z,5.00
2017-11-12T20:36:32.440Z,5.00
2017-11-12T20:39:00.024Z,5.00
2017-11-12T20:41:28.344Z,4.90
2017-11-12T20:43:55.917Z,4.90
2017-11-12T20:46:23.471Z,4.90
2017-11-12T20:48:51.072Z,5.00
2017-11-12T20:51:21.331Z,5.00
2017-11-12T20:53:48.914Z,5.00
2017-11-12T20:56:16.507Z,5.00
2017-11-12T20:58:44.076Z,5.00
2017-11-12T21:01:12.384Z,5.00
2017-11-12T21:03:55.752Z,5.00
2017-11-12T21:06:38.228Z,5.00
2017-11-12T21:09:05.819Z,5.00
2017-11-12T21:11:33.410Z,5.00
2017-11-12T21:14:00.974Z,4.90
2017-11-12T21:16:28.532Z,4.90
2017-11-12T21:18:56.151Z,4.90
2017-11-12T21:21:26.310Z,4.90
2017-11-12T21:23:53.909Z,4.90
2017-11-12T21:26:21.491Z,4.90
2017-11-12T21:28:49.562Z,4.90
2017-11-12T21:31:17.651Z,4.80
2017-11-12T21:33:48.994Z,4.80
2017-11-12T21:36:16.535Z,4.80
2017-11-12T21:38:44.128Z,4.80
2017-11-12T21:41:11.730Z,4.80
2017-11-12T21:43:40.068Z,4.90
2017-11-12T21:46:07.624Z,4.90
2017-11-12T21:48:35.235Z,4.80
2017-11-12T21:51:03.644Z,4.90
2017-11-12T21:53:31.219Z,4.80
2017-11-12T21:55:58.803Z,4.80
2017-11-12T21:58:26.450Z,4.80
2017-11-12T22:00:54.067Z,4.80
2017-11-12T22:03:21.641Z,4.80
2017-11-12T22:05:49.205Z,4.70
2017-11-12T22:08:16.820Z,4.70
2017-11-12T22:10:44.389Z,4.70
2017-11-12T22:13:11.946Z,4.80
2017-11-12T22:15:39.544Z,4.70
2017-11-12T22:18:07.100Z,4.70
2017-11-12T22:20:34.706Z,4.70
2017-11-12T22:23:02.277Z,4.70
2017-11-12T22:25:29.883Z,4.70
2017-11-12T22:27:57.440Z,4.70
2017-11-12T22:30:25.018Z,4.70
2017-11-12T22:32:52.631Z,4.70
2017-11-12T22:35:20.238Z,4.70
2017-11-12T22:37:47.852Z,4.80
2017-11-12T22:40:15.405Z,4.70
2017-11-12T22:42:42.982Z,4.70
2017-11-12T22:45:11.355Z,4.60
2017-11-12T22:47:38.963Z,4.60
2017-11-12T22:50:06.567Z,4.60
2017-11-12T22:52:34.132Z,4.60
2017-11-12T22:55:01.727Z,4.70
2017-11-12T22:57:29.334Z,4.70
2017-11-12T22:59:56.908Z,4.70
2017-11-12T23:02:24.479Z,4.70
2017-11-12T23:04:52.074Z,4.60
2017-11-12T23:07:19.627Z,4.70
2017-11-12T23:09:47.226Z,4.60
2017-11-12T23:12:14.785Z,4.70
2017-11-12T23:14:42.376Z,4.60
2017-11-12T23:17:09.967Z,4.60
2017-11-12T23:19:38.334Z,4.60
2017-11-12T23:22:06.691Z,4.60
2017-11-12T23:24:34.296Z,4.60
2017-11-12T23:27:01.855Z,4.60
2017-11-12T23:29:29.481Z,4.70
2017-11-12T23:31:57.042Z,4.80
2017-11-12T23:34:25.383Z,4.70
2017-11-12T23:36:52.980Z,4.70
2017-11-12T23:39:20.587Z,4.70
2017-11-12T23:41:48.151Z,4.70
2017-11-12T23:44:15.711Z,4.70
2017-11-12T23:46:43.352Z,4.70
2017-11-12T23:49:10.974Z,4.70
2017-11-12T23:51:38.536Z,4.70
2017-11-12T23:54:06.146Z,4.70
2017-11-12T23:56:33.716Z,4.70
2017-11-12T23:59:01.292Z,4.70
